createdAt,value
2022-09-25T00:00:55.711Z,15.23
2022-09-25T00:03:25.245Z,17.80
2022-09-25T00:05:53.388Z,14.83
2022-09-25T00:08:21.762Z,16.90
2022-09-25T00:10:51.314Z,18.03
2022-09-25T00:13:21.852Z,15.90
2022-09-25T00:15:51.243Z,17.90
2022-09-25T00:18:40.244Z,15.90
2022-09-25T00:21:11.516Z,17.53
2022-09-25T00:23:39.873Z,15.80
2022-09-25T00:26:09.267Z,17.60
2022-09-25T00:28:40.745Z,18.30
2022-09-25T00:31:10.134Z,15.53
2022-09-25T00:33:38.282Z,14.43
2022-09-25T00:36:07.923Z,18.17
2022-09-25T00:38:37.141Z,15.00
2022-09-25T00:41:06.794Z,16.27
2022-09-25T00:43:39.291Z,16.50
2022-09-25T00:46:11.983Z,15.40
2022-09-25T00:48:49.124Z,15.73
2022-09-25T00:51:19.286Z,15.70
2022-09-25T00:53:47.141Z,14.97
2022-09-25T00:56:15.552Z,20.73
2022-09-25T00:58:44.764Z,16.37
2022-09-25T01:01:12.948Z,14.53
2022-09-25T01:03:42.872Z,16.93
2022-09-25T01:06:12.050Z,15.70
2022-09-25T01:08:41.022Z,13.40
2022-09-25T01:11:08.787Z,16.70
2022-09-25T01:13:36.667Z,13.17
2022-09-25T01:16:14.119Z,16.97
2022-09-25T01:18:52.044Z,15.20
2022-09-25T01:21:33.991Z,14.17
2022-09-25T01:24:31.455Z,14.97
2022-09-25T01:27:33.756Z,17.57
2022-09-25T01:30:07.614Z,16.90
2022-09-25T01:32:41.816Z,17.77
2022-09-25T01:35:17.856Z,18.33
2022-09-25T01:37:51.289Z,15.43
2022-09-25T01:40:26.376Z,17.87
2022-09-25T01:42:58.548Z,18.13
2022-09-25T01:45:35.550Z,21.63
2022-09-25T01:48:07.211Z,21.60
2022-09-25T01:50:41.215Z,19.43
2022-09-25T01:53:13.817Z,19.50
2022-09-25T01:55:45.894Z,17.77
2022-09-25T01:58:18.826Z,19.00
2022-09-25T02:00:54.606Z,17.03
2022-09-25T02:03:25.655Z,17.37
2022-09-25T02:05:56.593Z,18.77
2022-09-25T02:08:28.484Z,16.67
2022-09-25T02:10:59.462Z,16.20
2022-09-25T02:13:34.048Z,19.03
2022-09-25T02:16:08.244Z,20.53
2022-09-25T02:18:54.006Z,15.57
2022-09-25T02:21:29.506Z,16.97
2022-09-25T02:24:02.196Z,17.00
2022-09-25T02:26:32.080Z,17.00
2022-09-25T02:29:00.526Z,17.67
2022-09-25T02:31:35.654Z,16.50
2022-09-25T02:34:04.511Z,18.93
2022-09-25T02:36:33.807Z,18.77
2022-09-25T02:39:04.173Z,16.90
2022-09-25T02:41:52.682Z,15.90
2022-09-25T02:44:32.308Z,17.70
2022-09-25T02:47:14.176Z,16.50
2022-09-25T02:49:51.804Z,16.80
2022-09-25T02:52:27.177Z,16.73
2022-09-25T02:54:59.366Z,15.13
2022-09-25T02:57:35.801Z,17.93
2022-09-25T03:00:08.160Z,17.53
2022-09-25T03:02:39.953Z,19.90
2022-09-25T03:05:11.105Z,15.60
2022-09-25T03:07:53.756Z,15.57
2022-09-25T03:10:22.373Z,16.77
2022-09-25T03:12:50.168Z,21.13
2022-09-25T03:15:18.588Z,18.00
2022-09-25T03:17:48.133Z,18.40
2022-09-25T03:20:16.413Z,15.93
2022-09-25T03:22:44.181Z,17.00
2022-09-25T03:25:11.898Z,19.90
2022-09-25T03:27:40.279Z,17.07
2022-09-25T03:30:09.061Z,18.53
2022-09-25T03:32:38.961Z,17.00
2022-09-25T03:35:08.741Z,18.10
2022-09-25T03:37:36.422Z,15.03
2022-09-25T03:40:04.671Z,15.40
2022-09-25T03:42:32.354Z,18.13
2022-09-25T03:45:00.035Z,17.43
2022-09-25T03:47:27.702Z,19.30
2022-09-25T03:49:55.386Z,18.67
2022-09-25T03:52:25.066Z,19.27
2022-09-25T03:54:52.747Z,20.53
2022-09-25T03:57:20.468Z,19.40
2022-09-25T03:59:48.163Z,18.03
2022-09-25T04:02:15.877Z,18.00
2022-09-25T04:04:45.710Z,18.47
2022-09-25T04:07:13.535Z,20.77
2022-09-25T04:09:42.573Z,19.87
2022-09-25T04:12:11.265Z,16.80
2022-09-25T04:14:39.052Z,19.50
2022-09-25T04:17:06.742Z,19.05
2022-09-25T04:19:34.740Z,19.60
2022-09-25T04:22:02.419Z,22.80
2022-09-25T04:24:47.863Z,21.20
2022-09-25T04:27:19.074Z,20.87
2022-09-25T04:29:47.224Z,21.10
2022-09-25T04:32:33.195Z,22.43
2022-09-25T04:35:00.932Z,19.20
2022-09-25T04:37:28.884Z,20.40
2022-09-25T04:39:57.906Z,19.07
2022-09-25T04:42:27.114Z,17.13
2022-09-25T04:44:57.053Z,16.80
2022-09-25T04:47:26.425Z,15.20
2022-09-25T04:49:54.163Z,17.23
2022-09-25T04:52:22.091Z,14.80
2022-09-25T04:54:49.997Z,15.10
2022-09-25T04:57:38.766Z,13.60
2022-09-25T05:00:09.813Z,11.77
2022-09-25T05:02:37.937Z,14.00
2022-09-25T05:05:06.391Z,11.40
2022-09-25T05:07:35.478Z,13.97
2022-09-25T05:10:03.191Z,12.90
2022-09-25T05:12:30.880Z,13.20
2022-09-25T05:14:58.576Z,11.93
2022-09-25T05:17:27.582Z,12.57
2022-09-25T05:19:55.284Z,12.20
2022-09-25T05:22:22.952Z,11.77
2022-09-25T05:24:54.138Z,12.10
2022-09-25T05:27:25.780Z,12.23
2022-09-25T05:29:53.857Z,10.43
2022-09-25T05:32:22.849Z,12.70
2022-09-25T05:34:51.876Z,12.27
2022-09-25T05:37:20.050Z,11.37
2022-09-25T05:39:47.718Z,11.97
2022-09-25T05:42:19.191Z,13.33
2022-09-25T05:44:47.352Z,11.50
2022-09-25T05:47:15.013Z,12.33
2022-09-25T05:49:42.708Z,10.57
2022-09-25T05:52:12.280Z,11.47
2022-09-25T05:54:39.978Z,14.13
2022-09-25T05:57:07.675Z,11.10
2022-09-25T05:59:35.412Z,11.93
2022-09-25T06:02:03.168Z,14.80
2022-09-25T06:04:30.899Z,12.53
2022-09-25T06:07:02.537Z,10.97
2022-09-25T06:09:31.578Z,14.00
2022-09-25T06:11:59.278Z,12.00
2022-09-25T06:14:26.936Z,14.40
2022-09-25T06:16:54.689Z,13.27
2022-09-25T06:19:22.364Z,13.30
2022-09-25T06:21:50.693Z,16.90
2022-09-25T06:24:18.360Z,14.07
2022-09-25T06:26:47.572Z,14.23
2022-09-25T06:29:15.244Z,15.67
2022-09-25T06:31:43.047Z,17.00
2022-09-25T06:34:12.290Z,17.30
2022-09-25T06:36:40.272Z,19.40
2022-09-25T06:39:08.539Z,18.93
2022-09-25T06:41:36.673Z,22.27
2022-09-25T06:44:07.000Z,18.10
2022-09-25T06:46:34.850Z,20.00
2022-09-25T06:49:02.600Z,20.70
2022-09-25T06:51:35.215Z,18.73
2022-09-25T06:54:03.580Z,22.00
2022-09-25T06:56:31.287Z,20.30
2022-09-25T06:58:58.961Z,27.23
2022-09-25T07:01:28.050Z,17.20
2022-09-25T07:03:54.783Z,20.67
2022-09-25T07:06:26.024Z,19.93
2022-09-25T07:08:54.030Z,19.63
2022-09-25T07:11:23.480Z,20.63
2022-09-25T07:13:52.334Z,22.40
2022-09-25T07:16:21.369Z,19.70
2022-09-25T07:18:51.287Z,22.17
2022-09-25T07:21:20.914Z,23.87
2022-09-25T07:23:49.815Z,24.60
2022-09-25T07:26:21.757Z,21.73
2022-09-25T07:28:54.742Z,27.53
2022-09-25T07:31:24.313Z,22.17
2022-09-25T07:33:53.693Z,20.00
2022-09-25T07:36:22.099Z,27.33
2022-09-25T07:38:50.954Z,22.70
2022-09-25T07:41:20.897Z,27.17
2022-09-25T07:44:01.915Z,22.00
2022-09-25T07:46:43.143Z,24.77
2022-09-25T07:49:12.518Z,25.43
2022-09-25T07:51:40.415Z,21.33
2022-09-25T07:54:08.597Z,29.00
2022-09-25T07:56:38.054Z,27.00
2022-09-25T07:59:06.133Z,28.43
2022-09-25T08:01:35.322Z,25.57
2022-09-25T08:04:04.873Z,26.13
2022-09-25T08:06:35.386Z,23.30
2022-09-25T08:09:08.118Z,22.13
2022-09-25T08:11:38.008Z,21.40
2022-09-25T08:14:05.697Z,22.13
2022-09-25T08:16:33.387Z,25.00
2022-09-25T08:19:01.086Z,23.33
2022-09-25T08:21:28.759Z,24.37
2022-09-25T08:23:57.758Z,23.43
2022-09-25T08:26:25.603Z,20.23
2022-09-25T08:28:53.267Z,23.80
2022-09-25T08:31:21.559Z,16.83
2022-09-25T08:33:51.061Z,19.93
2022-09-25T08:36:19.498Z,19.37
2022-09-25T08:38:47.316Z,17.87
2022-09-25T08:41:20.072Z,16.13
2022-09-25T08:43:58.277Z,15.50
2022-09-25T08:47:02.880Z,13.13
2022-09-25T08:49:39.135Z,16.23
2022-09-25T08:52:12.168Z,14.30
2022-09-25T08:54:43.537Z,15.63
2022-09-25T08:57:24.090Z,18.17
2022-09-25T09:00:01.318Z,13.63
2022-09-25T09:02:38.497Z,16.53
2022-09-25T09:05:16.008Z,16.13
2022-09-25T09:07:47.243Z,15.10
2022-09-25T09:10:27.971Z,14.10
2022-09-25T09:13:01.950Z,13.13
2022-09-25T09:15:36.273Z,15.10
2022-09-25T09:18:17.738Z,15.90
2022-09-25T09:20:51.492Z,13.43
2022-09-25T09:23:21.691Z,15.70
2022-09-25T09:26:01.849Z,12.40
2022-09-25T09:28:56.184Z,13.50
2022-09-25T09:31:30.924Z,13.20
2022-09-25T09:34:09.803Z,16.60
2022-09-25T09:36:43.308Z,17.67
2022-09-25T09:39:19.020Z,18.97
2022-09-25T09:41:58.197Z,16.30
2022-09-25T09:44:45.568Z,18.93
2022-09-25T09:47:26.374Z,16.60
2022-09-25T09:49:59.057Z,15.40
2022-09-25T09:52:33.956Z,14.47
2022-09-25T09:55:07.164Z,13.40
2022-09-25T09:57:43.955Z,17.70
2022-09-25T10:00:17.396Z,15.33
2022-09-25T10:02:49.782Z,13.10
2022-09-25T10:05:24.419Z,13.13
2022-09-25T10:07:52.776Z,18.40
2022-09-25T10:10:23.318Z,16.60
2022-09-25T10:12:53.728Z,15.97
2022-09-25T10:15:29.535Z,13.57
2022-09-25T10:18:00.834Z,11.93
2022-09-25T10:20:36.782Z,16.17
2022-09-25T10:23:09.844Z,12.53
2022-09-25T10:25:41.143Z,12.50
2022-09-25T10:28:24.223Z,11.83
2022-09-25T10:30:53.680Z,14.83
2022-09-25T10:33:24.065Z,14.80
2022-09-25T10:35:53.388Z,14.37
2022-09-25T10:38:38.341Z,12.83
2022-09-25T10:41:09.592Z,15.93
2022-09-25T10:43:52.106Z,10.97
2022-09-25T10:46:48.779Z,13.23
2022-09-25T10:49:37.281Z,14.23
2022-09-25T10:52:07.876Z,16.33
2022-09-25T10:54:41.930Z,11.93
2022-09-25T10:57:18.707Z,17.10
2022-09-25T10:59:50.084Z,13.47
2022-09-25T11:02:31.412Z,12.73
2022-09-25T11:04:59.206Z,15.23
2022-09-25T11:07:27.863Z,14.90
2022-09-25T11:09:59.938Z,16.47
2022-09-25T11:12:30.223Z,12.40
2022-09-25T11:15:02.253Z,12.33
2022-09-25T11:17:34.052Z,12.73
2022-09-25T11:20:21.466Z,11.30
2022-09-25T11:22:54.531Z,11.90
2022-09-25T11:25:26.953Z,15.50
2022-09-25T11:27:59.924Z,14.13
2022-09-25T11:30:35.231Z,13.23
2022-09-25T11:33:12.685Z,12.27
2022-09-25T11:35:49.614Z,11.70
2022-09-25T11:38:43.306Z,10.10
2022-09-25T11:41:22.956Z,9.77
2022-09-25T11:43:58.871Z,10.67
2022-09-25T11:46:35.275Z,9.53
2022-09-25T11:49:15.622Z,11.03
2022-09-25T11:52:03.319Z,9.47
2022-09-25T11:54:41.435Z,12.27
2022-09-25T11:57:12.802Z,11.37
2022-09-25T11:59:55.575Z,10.67
2022-09-25T12:02:34.102Z,9.73
2022-09-25T12:05:23.351Z,8.23
2022-09-25T12:08:08.018Z,12.93
2022-09-25T12:10:44.983Z,10.93
2022-09-25T12:13:22.455Z,11.13
2022-09-25T12:16:03.587Z,8.90
2022-09-25T12:18:55.341Z,9.90
2022-09-25T12:21:34.379Z,9.67
2022-09-25T12:24:10.101Z,9.90
2022-09-25T12:26:47.166Z,12.73
2022-09-25T12:29:29.962Z,10.60
2022-09-25T12:32:04.353Z,11.60
2022-09-25T12:34:50.585Z,10.73
2022-09-25T12:37:29.433Z,10.67
2022-09-25T12:39:59.702Z,11.10
2022-09-25T12:42:39.472Z,10.47
2022-09-25T12:45:16.078Z,13.70
2022-09-25T12:47:48.556Z,11.07
2022-09-25T12:50:19.069Z,18.27
2022-09-25T12:52:51.236Z,12.90
2022-09-25T12:55:23.668Z,9.60
2022-09-25T12:58:00.284Z,14.03
2022-09-25T13:00:31.982Z,13.17
2022-09-25T13:03:04.904Z,10.80
2022-09-25T13:05:35.277Z,10.40
2022-09-25T13:08:14.674Z,10.70
2022-09-25T13:10:47.157Z,10.73
2022-09-25T13:13:19.902Z,12.68
2022-09-25T13:15:52.284Z,10.87
2022-09-25T13:18:22.537Z,16.03
2022-09-25T13:20:52.869Z,12.60
2022-09-25T13:23:38.342Z,11.30
2022-09-25T13:26:12.784Z,11.60
2022-09-25T13:28:48.694Z,10.37
2022-09-25T13:31:23.544Z,12.20
2022-09-25T13:33:53.987Z,12.70
2022-09-25T13:36:40.433Z,13.03
2022-09-25T13:39:37.019Z,8.87
2022-09-25T13:42:07.912Z,11.30
2022-09-25T13:44:48.716Z,12.20
2022-09-25T13:47:53.006Z,9.47
2022-09-25T13:50:26.397Z,9.00
2022-09-25T13:53:18.775Z,9.27
2022-09-25T13:56:18.515Z,13.77
2022-09-25T13:59:28.249Z,10.10
2022-09-25T14:01:59.122Z,11.20
2022-09-25T14:04:33.641Z,9.00
2022-09-25T14:07:29.739Z,9.30
2022-09-25T14:10:01.129Z,8.83
2022-09-25T14:12:37.998Z,12.40
2022-09-25T14:15:08.858Z,9.43
2022-09-25T14:17:37.886Z,8.50
2022-09-25T14:20:11.070Z,8.30
2022-09-25T14:22:46.420Z,10.70
2022-09-25T14:25:28.075Z,11.60
2022-09-25T14:27:57.075Z,7.60
2022-09-25T14:30:29.046Z,8.43
2022-09-25T14:33:37.254Z,11.60
2022-09-25T14:36:12.495Z,7.80
2022-09-25T14:39:03.618Z,11.17
2022-09-25T14:41:46.574Z,8.73
2022-09-25T14:44:36.308Z,9.83
2022-09-25T14:47:05.308Z,6.93
2022-09-25T14:49:37.901Z,9.60
2022-09-25T14:52:10.146Z,7.95
2022-09-25T14:54:46.143Z,10.93
2022-09-25T14:57:19.873Z,7.00
2022-09-25T14:59:54.272Z,5.90
2022-09-25T15:02:24.837Z,6.20
2022-09-25T15:04:57.668Z,8.53
2022-09-25T15:07:27.792Z,9.00
2022-09-25T15:09:57.626Z,6.47
2022-09-25T15:12:27.273Z,11.80
2022-09-25T15:15:00.909Z,8.07
2022-09-25T15:17:29.695Z,6.33
2022-09-25T15:19:59.566Z,8.07
2022-09-25T15:22:31.993Z,8.60
2022-09-25T15:25:01.723Z,5.90
2022-09-25T15:27:30.770Z,7.07
2022-09-25T15:30:01.949Z,5.73
2022-09-25T15:32:37.520Z,8.80
2022-09-25T15:35:17.349Z,7.00
2022-09-25T15:37:45.618Z,6.77
2022-09-25T15:40:22.727Z,7.63
2022-09-25T15:42:51.455Z,6.73
2022-09-25T15:45:42.775Z,7.37
2022-09-25T15:48:20.836Z,6.80
2022-09-25T15:50:49.417Z,8.07
2022-09-25T15:53:25.555Z,8.17
2022-09-25T15:56:07.273Z,7.33
2022-09-25T15:58:44.496Z,8.47
2022-09-25T16:01:34.194Z,6.20
2022-09-25T16:04:20.152Z,5.50
2022-09-25T16:06:50.116Z,7.37
2022-09-25T16:09:31.229Z,5.80
2022-09-25T16:12:22.170Z,7.10
2022-09-25T16:14:51.254Z,6.40
2022-09-25T16:17:33.161Z,6.37
2022-09-25T16:20:04.252Z,6.77
2022-09-25T16:22:39.033Z,6.37
2022-09-25T16:25:19.274Z,7.90
2022-09-25T16:27:47.683Z,6.33
2022-09-25T16:30:19.891Z,8.27
2022-09-25T16:32:52.119Z,5.70
2022-09-25T16:35:26.068Z,6.40
2022-09-25T16:37:55.001Z,9.60
2022-09-25T16:40:28.710Z,9.17
2022-09-25T16:42:58.480Z,11.93
2022-09-25T16:45:29.708Z,7.63
2022-09-25T16:47:59.915Z,8.60
2022-09-25T16:50:31.832Z,7.47
2022-09-25T16:53:03.376Z,6.77
2022-09-25T16:55:33.224Z,7.07
2022-09-25T16:58:03.204Z,7.10
2022-09-25T17:00:31.189Z,8.17
2022-09-25T17:03:01.745Z,14.07
2022-09-25T17:05:31.580Z,5.50
2022-09-25T17:08:01.878Z,6.60
2022-09-25T17:10:32.069Z,7.40
2022-09-25T17:13:02.318Z,7.63
2022-09-25T17:15:32.902Z,7.53
2022-09-25T17:18:03.042Z,9.20
2022-09-25T17:20:31.867Z,6.37
2022-09-25T17:23:00.220Z,7.83
2022-09-25T17:25:44.833Z,9.50
2022-09-25T17:28:12.973Z,7.53
2022-09-25T17:30:41.521Z,8.00
2022-09-25T17:33:15.854Z,9.63
2022-09-25T17:35:49.253Z,8.30
2022-09-25T17:38:18.032Z,8.00
2022-09-25T17:40:47.985Z,9.10
2022-09-25T17:43:16.488Z,6.63
2022-09-25T17:45:48.263Z,6.47
2022-09-25T17:48:24.119Z,8.50
2022-09-25T17:50:52.779Z,8.40
2022-09-25T17:53:23.046Z,7.93
2022-09-25T17:55:53.741Z,7.53
2022-09-25T17:58:22.215Z,7.97
2022-09-25T18:00:50.901Z,12.67
2022-09-25T18:03:20.927Z,7.63
2022-09-25T18:05:49.497Z,9.43
2022-09-25T18:08:17.888Z,8.47
2022-09-25T18:10:46.448Z,7.80
2022-09-25T18:13:19.934Z,10.17
2022-09-25T18:15:51.213Z,7.13
2022-09-25T18:18:21.136Z,6.80
2022-09-25T18:21:09.314Z,7.10
2022-09-25T18:23:38.619Z,6.03
2022-09-25T18:26:09.707Z,8.33
2022-09-25T18:28:37.545Z,7.60
2022-09-25T18:31:05.886Z,8.00
2022-09-25T18:33:35.068Z,7.20
2022-09-25T18:36:03.018Z,6.53
2022-09-25T18:38:31.212Z,7.83
2022-09-25T18:41:02.180Z,6.33
2022-09-25T18:43:30.238Z,6.80
2022-09-25T18:45:58.001Z,7.03
2022-09-25T18:48:26.762Z,6.57
2022-09-25T18:50:55.831Z,6.90
2022-09-25T18:53:24.598Z,7.07
2022-09-25T18:55:54.488Z,6.83
2022-09-25T18:58:22.327Z,8.13
2022-09-25T19:00:50.912Z,7.40
2022-09-25T19:03:18.591Z,10.27
2022-09-25T19:05:58.740Z,6.93
2022-09-25T19:08:26.806Z,10.60
2022-09-25T19:10:54.571Z,8.23
2022-09-25T19:13:22.795Z,10.00
2022-09-25T19:15:50.721Z,7.20
2022-09-25T19:18:18.974Z,7.93
2022-09-25T19:20:52.800Z,11.33
2022-09-25T19:23:22.111Z,8.37
2022-09-25T19:25:55.055Z,9.53
2022-09-25T19:28:23.944Z,7.50
2022-09-25T19:30:59.460Z,8.20
2022-09-25T19:33:30.512Z,8.40
2022-09-25T19:35:58.997Z,9.70
2022-09-25T19:38:31.820Z,10.50
2022-09-25T19:40:59.981Z,13.50
2022-09-25T19:43:28.704Z,7.83
2022-09-25T19:45:57.230Z,11.00
2022-09-25T19:48:25.337Z,7.77
2022-09-25T19:50:53.184Z,8.10
2022-09-25T19:53:20.969Z,9.77
2022-09-25T19:55:53.196Z,8.17
2022-09-25T19:58:23.598Z,8.23
2022-09-25T20:00:53.292Z,7.70
2022-09-25T20:03:21.114Z,6.53
2022-09-25T20:05:49.313Z,9.77
2022-09-25T20:08:17.371Z,8.63
2022-09-25T20:10:45.119Z,11.20
2022-09-25T20:13:14.451Z,9.57
2022-09-25T20:15:44.798Z,12.20
2022-09-25T20:18:12.593Z,9.27
2022-09-25T20:20:40.364Z,9.70
2022-09-25T20:23:09.256Z,8.87
2022-09-25T20:25:37.191Z,8.70
2022-09-25T20:28:04.965Z,8.00
2022-09-25T20:30:35.495Z,8.60
2022-09-25T20:33:04.703Z,10.57
2022-09-25T20:35:32.387Z,9.57
2022-09-25T20:38:00.177Z,6.73
2022-09-25T20:40:28.048Z,8.00
2022-09-25T20:42:55.840Z,6.70
2022-09-25T20:45:23.519Z,6.93
2022-09-25T20:47:55.156Z,11.23
2022-09-25T20:50:22.845Z,7.90
2022-09-25T20:52:50.662Z,8.63
2022-09-25T20:55:20.031Z,7.67
2022-09-25T20:57:47.743Z,9.83
2022-09-25T21:00:19.168Z,8.30
2022-09-25T21:02:47.371Z,8.57
2022-09-25T21:05:16.641Z,7.70
2022-09-25T21:07:44.503Z,9.33
2022-09-25T21:10:12.298Z,6.50
2022-09-25T21:12:39.971Z,6.73
2022-09-25T21:15:08.670Z,8.90
2022-09-25T21:17:36.387Z,7.07
2022-09-25T21:20:04.489Z,8.07
2022-09-25T21:22:33.778Z,11.00
2022-09-25T21:25:01.704Z,11.53
2022-09-25T21:27:30.929Z,8.90
2022-09-25T21:29:58.589Z,10.50
2022-09-25T21:32:26.310Z,8.73
2022-09-25T21:34:54.231Z,8.17
2022-09-25T21:37:22.055Z,6.97
2022-09-25T21:39:51.232Z,9.27
2022-09-25T21:42:18.968Z,7.13
2022-09-25T21:44:47.352Z,8.93
2022-09-25T21:47:15.247Z,8.33
2022-09-25T21:49:43.030Z,9.40
2022-09-25T21:52:10.720Z,7.47
2022-09-25T21:54:38.404Z,8.27
2022-09-25T21:57:07.403Z,8.43
2022-09-25T21:59:35.423Z,8.87
2022-09-25T22:02:03.086Z,8.03
2022-09-25T22:04:30.844Z,9.77
2022-09-25T22:06:58.785Z,7.70
2022-09-25T22:09:27.414Z,8.00
2022-09-25T22:11:55.143Z,8.53
2022-09-25T22:14:24.241Z,7.43
2022-09-25T22:16:53.180Z,8.40
2022-09-25T22:19:23.062Z,9.43
2022-09-25T22:21:52.513Z,6.50
2022-09-25T22:24:21.714Z,6.80
2022-09-25T22:26:51.480Z,6.97
2022-09-25T22:29:20.665Z,7.07
2022-09-25T22:31:50.062Z,10.93
2022-09-25T22:34:20.639Z,6.83
2022-09-25T22:36:49.224Z,7.13
2022-09-25T22:39:18.453Z,9.67
2022-09-25T22:41:49.167Z,6.10
2022-09-25T22:44:17.154Z,8.13
2022-09-25T22:46:44.931Z,6.23
2022-09-25T22:49:14.205Z,6.87
2022-09-25T22:51:42.030Z,8.80
2022-09-25T22:54:13.623Z,6.27
2022-09-25T22:56:41.954Z,7.37
2022-09-25T22:59:13.400Z,7.97
2022-09-25T23:01:44.518Z,7.33
2022-09-25T23:04:16.461Z,7.17
2022-09-25T23:06:44.403Z,7.47
2022-09-25T23:09:14.652Z,8.80
2022-09-25T23:11:43.011Z,8.40
2022-09-25T23:14:16.672Z,6.90
2022-09-25T23:16:45.276Z,6.20
2022-09-25T23:19:15.560Z,9.03
2022-09-25T23:21:43.463Z,6.37
2022-09-25T23:24:13.740Z,7.10
2022-09-25T23:26:41.506Z,6.80
2022-09-25T23:29:09.471Z,10.00
2022-09-25T23:31:37.837Z,7.10
2022-09-25T23:34:05.627Z,7.87
2022-09-25T23:36:35.757Z,7.40
2022-09-25T23:39:05.058Z,7.33
2022-09-25T23:41:34.562Z,7.03
2022-09-25T23:44:03.741Z,6.17
2022-09-25T23:46:34.469Z,6.90
2022-09-25T23:49:02.335Z,7.60
2022-09-25T23:51:30.368Z,10.80
2022-09-25T23:54:00.963Z,7.20
2022-09-25T23:56:30.259Z,6.47
2022-09-25T23:58:59.211Z,7.73
